M I D A S
Marine Information and Data Acquisition System
Tripno 1073 of the Zeeleeuw from 2006-04-20 07:26:10 to 2006-04-20 11:05:24
Back to CruiseResearch ActivitiesStationsMapUnderway DataData graphs

EquipmentUnitsComments
TimeDGPSUTC
LatitudeDGPSDM.mWGS84
LongitudeDGPSDM.mWGS84
SpeedMeteo Stationm/sRelative wind speed
DirectionMeteo StationdegRelative wind direction
TemperatureMeteo Stationdeg CelciusAir temperature
PressureMeteo StationPaAtmospheric pressure
HumidityMeteo Station%Relative humidity
Missing or incorrect values are displayed as -999
Metereological data collected by the RV Zeeleeuw from 2006-04-20 07:25:49 to 2006-04-20 11:23:34
                                                                                    Next 1000 lines
Time Latitude Longitude Speed Direction Temperature Pressure Humidity
2006-04-20 07:25:59 51°13.601 2°56.093 -999 111 10 101480 72
2006-04-20 07:26:04 51°13.602 2°56.09 -999 124 9.9 101470 72
2006-04-20 07:26:09 51°13.602 2°56.087 -999 134 9.9 101470 72
2006-04-20 07:26:14 51°13.604 2°56.082 -999 123 10 101480 73
2006-04-20 07:26:20 51°13.605 2°56.076 -999 114 10 101480 73
2006-04-20 07:26:25 51°13.607 2°56.071 -999 112 9.9 101480 73
2006-04-20 07:26:30 51°13.608 2°56.065 -999 116 9.9 101480 73
2006-04-20 07:26:35 51°13.61 2°56.059 -999 127 9.9 101470 73
2006-04-20 07:26:40 51°13.611 2°56.052 -999 107 9.9 101470 73
2006-04-20 07:26:45 51°13.613 2°56.045 -999 117 10 101470 73
2006-04-20 07:26:50 51°13.614 2°56.037 -999 112 10 101470 73
2006-04-20 07:26:54 51°13.616 2°56.032 -999 122 9.9 101470 73
2006-04-20 07:27:00 51°13.618 2°56.022 -999 154 9.9 101470 73
2006-04-20 07:27:05 51°13.62 2°56.015 -999 142 9.9 101470 73
2006-04-20 07:27:10 51°13.621 2°56.007 -999 44 9.9 101470 73
2006-04-20 07:27:14 51°13.623 2°56.001 -999 139 9.9 101470 73
2006-04-20 07:27:20 51°13.625 2°55.991 -999 137 9.9 101470 73
2006-04-20 07:27:25 51°13.627 2°55.983 -999 140 9.9 101470 73
2006-04-20 07:27:30 51°13.629 2°55.975 -999 133 9.9 101470 73
2006-04-20 07:27:35 51°13.631 2°55.967 -999 117 9.9 101470 73
2006-04-20 07:27:40 51°13.633 2°55.958 -999 118 9.9 101470 73
2006-04-20 07:27:45 51°13.635 2°55.95 -999 126 9.9 101470 73
2006-04-20 07:27:50 51°13.638 2°55.941 -999 135 9.9 101470 73
2006-04-20 07:27:55 51°13.641 2°55.932 -999 124 10 101470 73
2006-04-20 07:28:00 51°13.644 2°55.923 -999 126 10 101470 73
2006-04-20 07:28:05 51°13.647 2°55.914 -999 132 10 101470 73
2006-04-20 07:28:10 51°13.651 2°55.905 -999 129 10 101470 73
2006-04-20 07:28:15 51°13.655 2°55.895 -999 157 10 101470 73
2006-04-20 07:28:20 51°13.659 2°55.886 -999 156 10 101470 73
2006-04-20 07:28:25 51°13.663 2°55.876 -999 149 10 101470 73
2006-04-20 07:28:30 51°13.667 2°55.867 -999 142 10 101470 73
2006-04-20 07:28:35 51°13.671 2°55.857 -999 163 10 101470 73
2006-04-20 07:28:40 51°13.675 2°55.848 -999 134 10 101470 73
2006-04-20 07:28:45 51°13.679 2°55.84 -999 142 10 101470 73
2006-04-20 07:28:50 51°13.683 2°55.832 -999 161 10 101470 73
2006-04-20 07:28:54 51°13.686 2°55.825 -999 148 10 101480 73
2006-04-20 07:29:00 51°13.69 2°55.816 -999 149 10 101480 73
2006-04-20 07:29:05 51°13.693 2°55.808 -999 226 10 101470 73
2006-04-20 07:29:10 51°13.696 2°55.8 -999 150 10 101470 73
2006-04-20 07:29:14 51°13.699 2°55.794 -999 149 10 101470 73
2006-04-20 07:29:20 51°13.702 2°55.785 -999 154 10 101470 73
2006-04-20 07:29:25 51°13.705 2°55.778 -999 141 10 101470 73
2006-04-20 07:29:30 51°13.707 2°55.771 -999 139 10 101470 73
2006-04-20 07:29:35 51°13.71 2°55.764 -999 148 10 101470 72
2006-04-20 07:29:40 51°13.712 2°55.757 -999 145 10 101470 72
2006-04-20 07:29:45 51°13.714 2°55.751 -999 134 10 101470 72
2006-04-20 07:29:50 51°13.716 2°55.744 -999 145 10 101470 72
2006-04-20 07:29:55 51°13.717 2°55.739 -999 144 10.1 101470 72
2006-04-20 07:29:59 51°13.719 2°55.734 -999 142 10.1 101470 72
2006-04-20 07:30:04 51°13.72 2°55.729 -999 135 10.1 101470 72
2006-04-20 07:30:09 51°13.721 2°55.724 -999 122 10.1 101470 72
2006-04-20 07:30:14 51°13.722 2°55.721 -999 115 10.1 101470 72
2006-04-20 07:30:20 51°13.722 2°55.716 -999 135 10.1 101470 72
2006-04-20 07:30:24 51°13.723 2°55.714 -999 141 10.1 101470 72
2006-04-20 07:30:29 51°13.723 2°55.713 -999 132 10.1 101470 72
2006-04-20 07:30:34 51°13.724 2°55.712 -999 141 10.1 101470 72
2006-04-20 07:30:40 51°13.725 2°55.713 -999 121 10.1 101470 72
2006-04-20 07:30:44 51°13.726 2°55.713 -999 151 10.1 101470 72
2006-04-20 07:30:49 51°13.727 2°55.715 -999 159 10.1 101470 72
2006-04-20 07:30:54 51°13.728 2°55.717 -999 165 10.1 101480 72
2006-04-20 07:30:59 51°13.729 2°55.719 -999 145 10.1 101480 72
2006-04-20 07:31:04 51°13.73 2°55.72 -999 149 10.1 101480 72
2006-04-20 07:31:10 51°13.731 2°55.721 -999 159 10.1 101480 72
2006-04-20 07:31:14 51°13.731 2°55.722 -999 163 10.1 101480 72
2006-04-20 07:31:20 51°13.732 2°55.722 -999 158 10.1 101480 72
2006-04-20 07:31:25 51°13.732 2°55.721 -999 171 10.1 101470 72
2006-04-20 07:31:30 51°13.732 2°55.72 -999 173 10.1 101470 72
2006-04-20 07:31:34 51°13.731 2°55.719 -999 164 10.1 101470 72
2006-04-20 07:31:39 51°13.73 2°55.717 -999 158 10.1 101470 72
2006-04-20 07:31:45 51°13.728 2°55.714 -999 165 10.1 101470 71
2006-04-20 07:31:49 51°13.726 2°55.712 -999 167 10.1 101470 71
2006-04-20 07:31:54 51°13.724 2°55.709 -999 178 10.2 101470 71
2006-04-20 07:32:00 51°13.722 2°55.707 -999 175 10.2 101470 71
2006-04-20 07:32:05 51°13.722 2°55.705 -999 166 10.2 101470 71
2006-04-20 07:32:10 51°13.721 2°55.704 -999 170 10.2 101470 71
2006-04-20 07:32:15 51°13.722 2°55.703 -999 173 10.2 101470 71
2006-04-20 07:32:20 51°13.723 2°55.704 -999 171 10.2 101470 71
2006-04-20 07:32:25 51°13.725 2°55.704 -999 211 10.2 101470 71
2006-04-20 07:32:30 51°13.727 2°55.704 -999 242 10.2 101470 71
2006-04-20 07:32:35 51°13.731 2°55.703 -999 234 10.2 101470 71
2006-04-20 07:32:40 51°13.734 2°55.702 -999 232 10.2 101470 71
2006-04-20 07:32:45 51°13.739 2°55.7 -999 233 10.2 101470 71
2006-04-20 07:32:50 51°13.744 2°55.698 -999 239 10.2 101470 71
2006-04-20 07:32:54 51°13.748 2°55.695 -999 253 10.2 101480 71
2006-04-20 07:32:59 51°13.753 2°55.69 -999 260 10.2 101480 71
2006-04-20 07:33:04 51°13.759 2°55.685 -999 268 10.2 101470 71
2006-04-20 07:33:09 51°13.765 2°55.68 -999 283 10.2 101470 71
2006-04-20 07:33:14 51°13.77 2°55.675 -999 285 10.2 101470 71
2006-04-20 07:33:19 51°13.776 2°55.67 -999 286 10.2 101470 71
2006-04-20 07:33:24 51°13.782 2°55.665 -999 291 10.2 101470 71
2006-04-20 07:33:29 51°13.787 2°55.66 -999 291 10.2 101470 71
2006-04-20 07:33:34 51°13.793 2°55.655 -999 303 10.2 101480 71
2006-04-20 07:33:39 51°13.799 2°55.65 -999 312 10.2 101480 71
2006-04-20 07:33:44 51°13.805 2°55.645 -999 263 10.2 101480 71
2006-04-20 07:33:49 51°13.811 2°55.64 -999 268 10.2 101480 71
2006-04-20 07:33:54 51°13.816 2°55.635 -999 278 10.3 101470 71
2006-04-20 07:33:58 51°13.821 2°55.631 -999 258 10.3 101470 71
2006-04-20 07:34:04 51°13.828 2°55.625 -999 256 10.3 101480 71
2006-04-20 07:34:09 51°13.834 2°55.62 -999 231 10.3 101480 71
2006-04-20 07:34:14 51°13.84 2°55.615 -999 232 10.3 101480 71
2006-04-20 07:34:19 51°13.846 2°55.611 -999 229 10.3 101480 71
2006-04-20 07:34:24 51°13.852 2°55.606 -999 250 10.3 101480 71
2006-04-20 07:34:30 51°13.859 2°55.601 -999 251 10.3 101480 71
2006-04-20 07:34:34 51°13.863 2°55.597 -999 338 10.3 101480 71
2006-04-20 07:34:39 51°13.869 2°55.593 -999 7 10.3 101480 71
2006-04-20 07:34:44 51°13.875 2°55.588 -999 325 10.3 101470 71
2006-04-20 07:34:49 51°13.881 2°55.584 -999 327 10.3 101470 71
2006-04-20 07:34:54 51°13.887 2°55.579 -999 327 10.4 101470 71
2006-04-20 07:34:59 51°13.893 2°55.575 -999 259 10.4 101470 71
2006-04-20 07:35:04 51°13.899 2°55.571 -999 269 10.4 101470 71
2006-04-20 07:35:09 51°13.906 2°55.566 -999 245 10.4 101470 71
2006-04-20 07:35:14 51°13.912 2°55.561 -999 290 10.4 101480 71
2006-04-20 07:35:19 51°13.92 2°55.556 -999 285 10.4 101480 71
2006-04-20 07:35:24 51°13.928 2°55.551 -999 263 10.5 101480 71
2006-04-20 07:35:29 51°13.936 2°55.546 -999 240 10.5 101480 71
2006-04-20 07:35:34 51°13.945 2°55.54 -999 242 10.5 101480 71
2006-04-20 07:35:39 51°13.954 2°55.534 -999 320 10.5 101480 71
2006-04-20 07:35:44 51°13.963 2°55.528 -999 353 10.5 101480 71
2006-04-20 07:35:49 51°13.973 2°55.521 -999 319 10.5 101480 71
2006-04-20 07:35:54 51°13.982 2°55.515 -999 318 10.5 101480 71
2006-04-20 07:35:59 51°13.992 2°55.509 -999 325 10.5 101480 71
2006-04-20 07:36:04 51°14.002 2°55.502 -999 333 10.5 101480 71
2006-04-20 07:36:09 51°14.012 2°55.495 -999 347 10.5 101480 71
2006-04-20 07:36:14 51°14.022 2°55.489 -999 317 10.5 101480 71
2006-04-20 07:36:19 51°14.033 2°55.482 -999 336 10.5 101480 71
2006-04-20 07:36:24 51°14.043 2°55.475 -999 323 10.6 101480 70
2006-04-20 07:36:29 51°14.053 2°55.468 -999 326 10.6 101480 70
2006-04-20 07:36:34 51°14.063 2°55.46 -999 39 10.6 101480 70
2006-04-20 07:36:39 51°14.074 2°55.453 -999 327 10.6 101480 70
2006-04-20 07:36:44 51°14.084 2°55.446 -999 318 10.6 101480 70
2006-04-20 07:36:49 51°14.095 2°55.439 -999 230 10.6 101480 70
2006-04-20 07:36:54 51°14.105 2°55.431 -999 308 10.6 101480 70
2006-04-20 07:36:59 51°14.116 2°55.424 -999 341 10.6 101480 70
2006-04-20 07:37:04 51°14.127 2°55.415 -999 13 10.6 101480 70
2006-04-20 07:37:09 51°14.138 2°55.406 -999 341 10.6 101480 70
2006-04-20 07:37:14 51°14.149 2°55.397 -999 338 10.6 101480 70
2006-04-20 07:37:19 51°14.16 2°55.387 -999 338 10.6 101480 70
2006-04-20 07:37:24 51°14.17 2°55.377 -999 337 10.6 101480 70
2006-04-20 07:37:29 51°14.181 2°55.366 -999 346 10.6 101480 70
2006-04-20 07:37:35 51°14.194 2°55.353 -999 12 10.6 101480 70
2006-04-20 07:37:40 51°14.204 2°55.341 -999 6 10.6 101480 70
2006-04-20 07:37:44 51°14.212 2°55.331 -999 354 10.6 101480 70
2006-04-20 07:37:50 51°14.224 2°55.316 -999 334 10.6 101480 70
2006-04-20 07:37:54 51°14.232 2°55.305 -999 347 10.6 101470 70
2006-04-20 07:38:00 51°14.244 2°55.289 -999 334 10.6 101470 70
2006-04-20 07:38:05 51°14.253 2°55.274 -999 333 10.6 101470 70
2006-04-20 07:38:10 51°14.262 2°55.26 -999 347 10.6 101470 70
2006-04-20 07:38:14 51°14.269 2°55.247 -999 338 10.6 101470 70
2006-04-20 07:38:20 51°14.28 2°55.229 -999 347 10.6 101470 70
2006-04-20 07:38:25 51°14.288 2°55.212 -999 342 10.6 101470 70
2006-04-20 07:38:30 51°14.297 2°55.196 -999 325 10.6 101470 70
2006-04-20 07:38:34 51°14.303 2°55.183 -999 43 10.7 101470 69
2006-04-20 07:38:40 51°14.313 2°55.164 -999 318 10.7 101470 69
2006-04-20 07:38:45 51°14.322 2°55.147 -999 328 10.7 101470 69
2006-04-20 07:38:50 51°14.33 2°55.13 -999 336 10.7 101470 69
2006-04-20 07:38:54 51°14.336 2°55.117 -999 330 10.7 101470 69
2006-04-20 07:38:58 51°14.343 2°55.103 -999 325 10.7 101470 69
2006-04-20 07:39:04 51°14.353 2°55.084 -999 322 10.7 101470 69
2006-04-20 07:39:09 51°14.362 2°55.068 -999 324 10.7 101470 69
2006-04-20 07:39:14 51°14.371 2°55.053 -999 311 10.7 101470 70
2006-04-20 07:39:19 51°14.381 2°55.038 -999 309 10.7 101470 70
2006-04-20 07:39:24 51°14.39 2°55.023 -999 307 10.7 101470 70
2006-04-20 07:39:30 51°14.402 2°55.006 -999 299 10.7 101470 70
2006-04-20 07:39:34 51°14.41 2°54.996 -999 308 10.7 101470 70
2006-04-20 07:39:39 51°14.421 2°54.983 -999 310 10.7 101470 70
2006-04-20 07:39:44 51°14.432 2°54.97 -999 303 10.7 101460 70
2006-04-20 07:39:49 51°14.443 2°54.958 -999 290 10.7 101460 70
2006-04-20 07:39:54 51°14.454 2°54.947 -999 307 10.7 101470 70
2006-04-20 07:39:59 51°14.465 2°54.935 -999 290 10.7 101470 70
2006-04-20 07:40:04 51°14.477 2°54.924 -999 301 10.7 101470 70
2006-04-20 07:40:09 51°14.488 2°54.914 -999 304 10.7 101470 70
2006-04-20 07:40:14 51°14.499 2°54.903 -999 306 10.7 101470 70
2006-04-20 07:40:19 51°14.511 2°54.892 -999 308 10.7 101470 70
2006-04-20 07:40:24 51°14.523 2°54.882 -999 311 10.7 101470 70
2006-04-20 07:40:29 51°14.534 2°54.871 -999 295 10.7 101470 70
2006-04-20 07:40:34 51°14.546 2°54.86 -999 309 10.7 101470 71
2006-04-20 07:40:39 51°14.557 2°54.849 -999 310 10.7 101470 71
2006-04-20 07:40:44 51°14.569 2°54.838 -999 307 10.7 101470 71
2006-04-20 07:40:49 51°14.582 2°54.826 -999 311 10.7 101470 71
2006-04-20 07:40:54 51°14.594 2°54.813 -999 312 10.7 101470 71
2006-04-20 07:40:59 51°14.607 2°54.801 -999 316 10.7 101470 71
2006-04-20 07:41:04 51°14.62 2°54.787 -999 227 10.7 101470 71
2006-04-20 07:41:09 51°14.633 2°54.773 -999 322 10.7 101470 71
2006-04-20 07:41:14 51°14.647 2°54.759 -999 318 10.6 101480 71
2006-04-20 07:41:19 51°14.661 2°54.745 -999 324 10.6 101480 71
2006-04-20 07:41:24 51°14.675 2°54.729 -999 321 10.7 101470 71
2006-04-20 07:41:29 51°14.689 2°54.714 -999 325 10.7 101470 71
2006-04-20 07:41:34 51°14.704 2°54.698 -999 322 10.7 101470 71
2006-04-20 07:41:39 51°14.718 2°54.682 -999 319 10.7 101470 71
2006-04-20 07:41:44 51°14.733 2°54.666 -999 319 10.7 101460 71
2006-04-20 07:41:49 51°14.748 2°54.651 -999 322 10.7 101460 71
2006-04-20 07:41:54 51°14.763 2°54.635 -999 323 10.7 101460 71
2006-04-20 07:41:59 51°14.778 2°54.619 -999 324 10.7 101460 71
2006-04-20 07:42:04 51°14.794 2°54.604 -999 326 10.7 101460 71
2006-04-20 07:42:09 51°14.81 2°54.59 -999 320 10.7 101460 71
2006-04-20 07:42:14 51°14.826 2°54.576 -999 322 10.7 101470 71
2006-04-20 07:42:19 51°14.843 2°54.561 -999 318 10.7 101470 71
2006-04-20 07:42:24 51°14.859 2°54.548 -999 316 10.7 101470 71
2006-04-20 07:42:29 51°14.875 2°54.534 -999 325 10.7 101470 71
2006-04-20 07:42:34 51°14.892 2°54.519 -999 325 10.7 101470 71
2006-04-20 07:42:39 51°14.908 2°54.505 -999 330 10.7 101470 71
2006-04-20 07:42:44 51°14.924 2°54.49 -999 326 10.6 101470 71
2006-04-20 07:42:49 51°14.94 2°54.475 -999 326 10.6 101470 71
2006-04-20 07:42:54 51°14.956 2°54.46 -999 327 10.6 101470 71
2006-04-20 07:42:59 51°14.971 2°54.444 -999 323 10.6 101470 71
2006-04-20 07:43:04 51°14.987 2°54.429 -999 326 10.6 101470 72
2006-04-20 07:43:09 51°15.002 2°54.413 -999 322 10.6 101470 72
2006-04-20 07:43:14 51°15.018 2°54.398 -999 325 10.6 101470 72
2006-04-20 07:43:19 51°15.033 2°54.382 -999 324 10.6 101470 72
2006-04-20 07:43:24 51°15.048 2°54.366 -999 327 10.6 101470 72
2006-04-20 07:43:29 51°15.064 2°54.351 -999 321 10.6 101470 72
2006-04-20 07:43:34 51°15.08 2°54.335 -999 318 10.6 101470 72
2006-04-20 07:43:39 51°15.095 2°54.32 -999 322 10.6 101470 72
2006-04-20 07:43:44 51°15.111 2°54.305 -999 331 10.6 101470 72
2006-04-20 07:43:49 51°15.128 2°54.291 -999 321 10.6 101470 72
2006-04-20 07:43:54 51°15.144 2°54.278 -999 323 10.6 101460 72
2006-04-20 07:43:59 51°15.161 2°54.265 -999 319 10.6 101460 72
2006-04-20 07:44:04 51°15.178 2°54.252 -999 322 10.5 101470 72
2006-04-20 07:44:08 51°15.191 2°54.242 -999 324 10.5 101470 72
2006-04-20 07:44:14 51°15.212 2°54.226 -999 318 10.5 101470 72
2006-04-20 07:44:19 51°15.228 2°54.212 -999 323 10.5 101470 72
2006-04-20 07:44:24 51°15.245 2°54.198 -999 322 10.5 101470 72
2006-04-20 07:44:29 51°15.261 2°54.184 -999 322 10.5 101470 72
2006-04-20 07:44:34 51°15.277 2°54.169 -999 319 10.5 101460 73
2006-04-20 07:44:39 51°15.293 2°54.153 -999 322 10.5 101460 73
2006-04-20 07:44:44 51°15.308 2°54.137 -999 319 10.5 101470 73
2006-04-20 07:44:49 51°15.324 2°54.121 -999 323 10.5 101470 73
2006-04-20 07:44:54 51°15.339 2°54.105 -999 317 10.5 101470 73
2006-04-20 07:44:59 51°15.355 2°54.089 -999 317 10.5 101470 73
2006-04-20 07:45:04 51°15.37 2°54.074 -999 319 10.5 101470 73
2006-04-20 07:45:09 51°15.387 2°54.059 -999 322 10.5 101470 73
2006-04-20 07:45:14 51°15.402 2°54.045 -999 320 10.5 101470 73
2006-04-20 07:45:19 51°15.418 2°54.031 -999 318 10.5 101470 73
2006-04-20 07:45:24 51°15.435 2°54.017 -999 43 10.4 101470 73
2006-04-20 07:45:29 51°15.451 2°54.003 -999 317 10.4 101470 73
2006-04-20 07:45:34 51°15.467 2°53.989 -999 316 10.4 101460 73
2006-04-20 07:45:39 51°15.483 2°53.976 -999 43 10.4 101460 73
2006-04-20 07:45:44 51°15.498 2°53.961 -999 317 10.4 101460 73
2006-04-20 07:45:49 51°15.514 2°53.947 -999 315 10.4 101460 73
2006-04-20 07:45:54 51°15.53 2°53.932 -999 43 10.4 101470 74
2006-04-20 07:45:59 51°15.546 2°53.917 -999 315 10.4 101470 74
2006-04-20 07:46:04 51°15.561 2°53.902 -999 315 10.4 101460 74
2006-04-20 07:46:09 51°15.577 2°53.888 -999 320 10.4 101460 74
2006-04-20 07:46:14 51°15.592 2°53.873 -999 42 10.4 101460 74
2006-04-20 07:46:19 51°15.608 2°53.859 -999 227 10.4 101460 74
2006-04-20 07:46:24 51°15.624 2°53.846 -999 227 10.4 101470 74
2006-04-20 07:46:29 51°15.64 2°53.832 -999 320 10.4 101470 74
2006-04-20 07:46:34 51°15.656 2°53.819 -999 316 10.4 101460 74
2006-04-20 07:46:39 51°15.672 2°53.806 -999 229 10.4 101460 74
2006-04-20 07:46:44 51°15.688 2°53.793 -999 43 10.4 101460 74
2006-04-20 07:46:49 51°15.705 2°53.78 -999 317 10.4 101460 74
2006-04-20 07:46:54 51°15.721 2°53.767 -999 321 10.4 101470 74
2006-04-20 07:46:59 51°15.737 2°53.754 -999 43 10.4 101470 74
2006-04-20 07:47:04 51°15.753 2°53.74 -999 43 10.4 101470 75
2006-04-20 07:47:09 51°15.77 2°53.727 -999 43 10.4 101470 75
2006-04-20 07:47:14 51°15.786 2°53.713 -999 43 10.3 101470 74
2006-04-20 07:47:19 51°15.802 2°53.7 -999 316 10.3 101470 74
2006-04-20 07:47:24 51°15.817 2°53.685 -999 42 10.3 101470 75
2006-04-20 07:47:29 51°15.834 2°53.671 -999 227 10.3 101470 75
2006-04-20 07:47:34 51°15.85 2°53.657 -999 318 10.3 101470 75
2006-04-20 07:47:39 51°15.866 2°53.644 -999 320 10.3 101470 75
2006-04-20 07:47:44 51°15.882 2°53.631 -999 319 10.3 101470 75
2006-04-20 07:47:49 51°15.898 2°53.618 -999 320 10.3 101470 75
2006-04-20 07:47:54 51°15.915 2°53.604 -999 317 10.3 101460 75
2006-04-20 07:47:59 51°15.931 2°53.591 -999 317 10.3 101460 75
2006-04-20 07:48:04 51°15.947 2°53.579 -999 322 10.3 101470 75
2006-04-20 07:48:09 51°15.963 2°53.566 -999 321 10.3 101470 75
2006-04-20 07:48:14 51°15.979 2°53.553 -999 228 10.3 101460 75
2006-04-20 07:48:19 51°15.996 2°53.54 -999 317 10.3 101460 75
2006-04-20 07:48:24 51°16.012 2°53.526 -999 321 10.3 101470 75
2006-04-20 07:48:29 51°16.027 2°53.514 -999 43 10.3 101470 75
2006-04-20 07:48:34 51°16.043 2°53.5 -999 43 10.3 101460 75
2006-04-20 07:48:39 51°16.059 2°53.486 -999 318 10.3 101460 75
2006-04-20 07:48:44 51°16.075 2°53.472 -999 42 10.3 101460 75
2006-04-20 07:48:49 51°16.09 2°53.458 -999 316 10.3 101460 75
2006-04-20 07:48:54 51°16.106 2°53.444 -999 321 10.3 101460 75
2006-04-20 07:48:59 51°16.122 2°53.429 -999 317 10.3 101460 75
2006-04-20 07:49:04 51°16.137 2°53.415 -999 319 10.2 101460 76
2006-04-20 07:49:09 51°16.153 2°53.4 -999 320 10.2 101460 76
2006-04-20 07:49:14 51°16.169 2°53.385 -999 316 10.2 101460 76
2006-04-20 07:49:19 51°16.185 2°53.371 -999 318 10.2 101460 76
2006-04-20 07:49:24 51°16.2 2°53.357 -999 323 10.2 101460 76
2006-04-20 07:49:29 51°16.217 2°53.343 -999 320 10.2 101460 76
2006-04-20 07:49:34 51°16.233 2°53.33 -999 320 10.2 101470 76
2006-04-20 07:49:39 51°16.249 2°53.317 -999 317 10.2 101470 76
2006-04-20 07:49:44 51°16.265 2°53.304 -999 42 10.2 101470 76
2006-04-20 07:49:49 51°16.282 2°53.291 -999 319 10.2 101470 76
2006-04-20 07:49:54 51°16.298 2°53.278 -999 323 10.2 101470 76
2006-04-20 07:49:59 51°16.314 2°53.265 -999 316 10.2 101470 76
2006-04-20 07:50:04 51°16.331 2°53.252 -999 319 10.2 101470 76
2006-04-20 07:50:09 51°16.347 2°53.239 -999 319 10.2 101470 76
2006-04-20 07:50:14 51°16.363 2°53.226 -999 321 10.2 101460 76
2006-04-20 07:50:19 51°16.379 2°53.212 -999 324 10.2 101460 76
2006-04-20 07:50:24 51°16.395 2°53.198 -999 318 10.2 101460 76
2006-04-20 07:50:29 51°16.412 2°53.184 -999 319 10.2 101460 76
2006-04-20 07:50:34 51°16.428 2°53.17 -999 322 10.2 101470 77
2006-04-20 07:50:39 51°16.444 2°53.157 -999 316 10.2 101470 77
2006-04-20 07:50:44 51°16.46 2°53.143 -999 322 10.2 101460 77
2006-04-20 07:50:49 51°16.476 2°53.129 -999 321 10.2 101460 77
2006-04-20 07:50:54 51°16.492 2°53.115 -999 325 10.2 101470 77
2006-04-20 07:50:59 51°16.508 2°53.101 -999 322 10.2 101470 77
2006-04-20 07:51:04 51°16.524 2°53.088 -999 323 10.2 101470 77
2006-04-20 07:51:09 51°16.541 2°53.074 -999 324 10.2 101470 77
2006-04-20 07:51:14 51°16.557 2°53.061 -999 320 10.2 101460 77
2006-04-20 07:51:19 51°16.574 2°53.049 -999 322 10.2 101460 77
2006-04-20 07:51:24 51°16.59 2°53.036 -999 325 10.2 101470 77
2006-04-20 07:51:29 51°16.607 2°53.023 -999 321 10.2 101470 77
2006-04-20 07:51:34 51°16.623 2°53.01 -999 326 10.2 101470 77
2006-04-20 07:51:38 51°16.636 2°53 -999 328 10.2 101470 77
2006-04-20 07:51:44 51°16.656 2°52.983 -999 325 10.2 101470 77
2006-04-20 07:51:49 51°16.672 2°52.97 -999 325 10.2 101470 77
2006-04-20 07:51:54 51°16.688 2°52.956 -999 324 10.1 101460 77
2006-04-20 07:51:59 51°16.705 2°52.942 -999 326 10.1 101460 77
2006-04-20 07:52:04 51°16.721 2°52.928 -999 327 10.1 101470 77
2006-04-20 07:52:09 51°16.737 2°52.915 -999 322 10.1 101470 77
2006-04-20 07:52:14 51°16.753 2°52.901 -999 324 10.1 101470 78
2006-04-20 07:52:19 51°16.769 2°52.887 -999 320 10.1 101470 78
2006-04-20 07:52:24 51°16.785 2°52.873 -999 319 10.1 101470 78
2006-04-20 07:52:29 51°16.801 2°52.861 -999 329 10.1 101470 78
2006-04-20 07:52:34 51°16.817 2°52.848 -999 321 10.1 101460 77
2006-04-20 07:52:39 51°16.834 2°52.836 -999 330 10.1 101460 77
2006-04-20 07:52:44 51°16.85 2°52.824 -999 326 10.1 101470 77
2006-04-20 07:52:49 51°16.866 2°52.812 -999 327 10.1 101470 77
2006-04-20 07:52:54 51°16.883 2°52.8 -999 328 10.1 101470 77
2006-04-20 07:52:59 51°16.899 2°52.789 -999 332 10.1 101470 77
2006-04-20 07:53:04 51°16.916 2°52.778 -999 327 10.1 101470 77
2006-04-20 07:53:09 51°16.933 2°52.769 -999 329 10.1 101470 77
2006-04-20 07:53:14 51°16.951 2°52.76 -999 332 10.1 101460 77
2006-04-20 07:53:19 51°16.968 2°52.752 -999 336 10.1 101460 77
2006-04-20 07:53:24 51°16.986 2°52.744 -999 334 10.1 101470 78
2006-04-20 07:53:29 51°17.004 2°52.737 -999 330 10.1 101470 78
2006-04-20 07:53:34 51°17.021 2°52.73 -999 331 10 101470 78
2006-04-20 07:53:39 51°17.039 2°52.725 -999 335 10 101470 78
2006-04-20 07:53:44 51°17.057 2°52.72 -999 336 10.1 101470 78
2006-04-20 07:53:49 51°17.076 2°52.715 -999 332 10.1 101470 78
2006-04-20 07:53:54 51°17.093 2°52.712 -999 337 10.1 101470 78
2006-04-20 07:53:59 51°17.112 2°52.708 -999 341 10.1 101470 78
2006-04-20 07:54:04 51°17.13 2°52.706 -999 335 10.1 101470 78
2006-04-20 07:54:09 51°17.148 2°52.702 -999 336 10.1 101470 78
2006-04-20 07:54:14 51°17.166 2°52.7 -999 329 10.1 101470 78
2006-04-20 07:54:19 51°17.184 2°52.698 -999 331 10.1 101470 78
2006-04-20 07:54:24 51°17.202 2°52.696 -999 332 10.1 101470 78
2006-04-20 07:54:29 51°17.22 2°52.693 -999 335 10.1 101470 78
2006-04-20 07:54:34 51°17.238 2°52.691 -999 336 10.1 101470 78
2006-04-20 07:54:39 51°17.256 2°52.687 -999 336 10.1 101470 78
2006-04-20 07:54:44 51°17.275 2°52.684 -999 332 10.1 101470 78
2006-04-20 07:54:49 51°17.293 2°52.68 -999 327 10.1 101470 78
2006-04-20 07:54:54 51°17.311 2°52.676 -999 331 10.1 101470 78
2006-04-20 07:54:59 51°17.328 2°52.67 -999 331 10.1 101470 78
2006-04-20 07:55:04 51°17.347 2°52.665 -999 335 10.1 101470 78
2006-04-20 07:55:09 51°17.364 2°52.66 -999 335 10.1 101470 78
2006-04-20 07:55:14 51°17.383 2°52.655 -999 337 10.1 101470 78
2006-04-20 07:55:19 51°17.4 2°52.65 -999 329 10.1 101470 78
2006-04-20 07:55:24 51°17.419 2°52.646 -999 339 10.1 101470 78
2006-04-20 07:55:29 51°17.436 2°52.643 -999 334 10.1 101470 78
2006-04-20 07:55:34 51°17.455 2°52.638 -999 333 10.1 101470 78
2006-04-20 07:55:39 51°17.473 2°52.633 -999 341 10.1 101470 78
2006-04-20 07:55:44 51°17.491 2°52.628 -999 331 10.1 101470 78
2006-04-20 07:55:49 51°17.509 2°52.623 -999 335 10.1 101470 78
2006-04-20 07:55:54 51°17.526 2°52.619 -999 335 10.1 101470 78
2006-04-20 07:55:59 51°17.544 2°52.614 -999 330 10.1 101470 78
2006-04-20 07:56:04 51°17.562 2°52.609 -999 331 10.1 101480 78
2006-04-20 07:56:09 51°17.58 2°52.605 -999 334 10.1 101480 78
2006-04-20 07:56:14 51°17.598 2°52.602 -999 331 10.1 101470 78
2006-04-20 07:56:19 51°17.616 2°52.6 -999 332 10.1 101470 78
2006-04-20 07:56:24 51°17.634 2°52.597 -999 331 10.1 101470 79
2006-04-20 07:56:29 51°17.653 2°52.596 -999 326 10.1 101470 79
2006-04-20 07:56:34 51°17.671 2°52.595 -999 332 10.1 101470 79
2006-04-20 07:56:39 51°17.689 2°52.594 -999 332 10.1 101470 79
2006-04-20 07:56:44 51°17.707 2°52.593 -999 330 10.1 101470 79
2006-04-20 07:56:48 51°17.721 2°52.591 -999 330 10.1 101470 79
2006-04-20 07:56:54 51°17.743 2°52.588 -999 328 10.1 101480 78
2006-04-20 07:56:59 51°17.761 2°52.584 -999 327 10.1 101480 78
2006-04-20 07:57:04 51°17.779 2°52.581 -999 328 10.1 101470 78
2006-04-20 07:57:09 51°17.797 2°52.576 -999 323 10.1 101470 78
2006-04-20 07:57:14 51°17.815 2°52.573 -999 328 10.1 101470 78
2006-04-20 07:57:19 51°17.833 2°52.57 -999 328 10.1 101470 78
2006-04-20 07:57:24 51°17.851 2°52.568 -999 326 10.1 101470 78
2006-04-20 07:57:29 51°17.869 2°52.567 -999 323 10.1 101470 78
2006-04-20 07:57:34 51°17.887 2°52.566 -999 330 10.1 101470 78
2006-04-20 07:57:39 51°17.905 2°52.567 -999 327 10.1 101470 78
2006-04-20 07:57:44 51°17.923 2°52.569 -999 327 10.1 101470 78
2006-04-20 07:57:49 51°17.941 2°52.572 -999 329 10.1 101470 78
2006-04-20 07:57:54 51°17.959 2°52.576 -999 333 10.1 101470 78
2006-04-20 07:57:59 51°17.977 2°52.58 -999 325 10.1 101470 78
2006-04-20 07:58:04 51°17.995 2°52.584 -999 326 10.1 101470 78
2006-04-20 07:58:09 51°18.013 2°52.589 -999 332 10.1 101470 78
2006-04-20 07:58:14 51°18.031 2°52.594 -999 334 10.1 101470 78
2006-04-20 07:58:19 51°18.048 2°52.6 -999 329 10.1 101470 78
2006-04-20 07:58:24 51°18.066 2°52.605 -999 326 10 101470 78
2006-04-20 07:58:29 51°18.083 2°52.609 -999 328 10 101470 78
2006-04-20 07:58:34 51°18.101 2°52.613 -999 327 10.1 101470 78
2006-04-20 07:58:39 51°18.119 2°52.619 -999 332 10.1 101470 78
2006-04-20 07:58:44 51°18.137 2°52.625 -999 331 10 101480 78
2006-04-20 07:58:49 51°18.154 2°52.633 -999 345 10 101480 78
2006-04-20 07:58:54 51°18.171 2°52.642 -999 339 10 101470 78
2006-04-20 07:58:59 51°18.188 2°52.652 -999 345 10 101470 78
2006-04-20 07:59:04 51°18.204 2°52.662 -999 349 10 101480 77
2006-04-20 07:59:09 51°18.22 2°52.673 -999 344 10 101480 77
2006-04-20 07:59:14 51°18.237 2°52.685 -999 355 10 101470 77
2006-04-20 07:59:19 51°18.252 2°52.698 -999 9 10 101470 77
2006-04-20 07:59:24 51°18.267 2°52.713 -999 8 10 101470 77
2006-04-20 07:59:29 51°18.282 2°52.73 -999 19 10 101470 77
2006-04-20 07:59:34 51°18.295 2°52.747 -999 16 10 101480 78
2006-04-20 07:59:39 51°18.309 2°52.765 -999 29 10 101480 78
2006-04-20 07:59:44 51°18.322 2°52.784 -999 32 10.1 101480 78
2006-04-20 07:59:49 51°18.335 2°52.803 -999 32 10.1 101480 78
2006-04-20 07:59:54 51°18.347 2°52.823 -999 37 10.1 101480 77
2006-04-20 07:59:59 51°18.359 2°52.844 -999 35 10.1 101480 77
2006-04-20 08:00:04 51°18.37 2°52.865 -999 37 10 101480 77
2006-04-20 08:00:10 51°18.383 2°52.891 -999 43 10 101480 77
2006-04-20 08:00:14 51°18.392 2°52.909 -999 41 10 101480 77
2006-04-20 08:00:19 51°18.403 2°52.93 -999 34 10 101480 77
2006-04-20 08:00:24 51°18.414 2°52.952 -999 39 10 101480 77
2006-04-20 08:00:29 51°18.424 2°52.974 -999 43 10 101480 77
2006-04-20 08:00:34 51°18.435 2°52.997 -999 44 10 101480 77
2006-04-20 08:00:39 51°18.445 2°53.02 -999 49 10 101480 77
2006-04-20 08:00:44 51°18.455 2°53.043 -999 54 10 101480 78
2006-04-20 08:00:49 51°18.463 2°53.068 -999 47 10 101480 78
2006-04-20 08:00:54 51°18.471 2°53.093 -999 48 10 101470 78
2006-04-20 08:01:00 51°18.481 2°53.123 -999 51 10 101470 78
2006-04-20 08:01:04 51°18.487 2°53.142 -999 56 10 101480 78
2006-04-20 08:01:09 51°18.494 2°53.168 -999 51 10 101480 78
2006-04-20 08:01:14 51°18.5 2°53.193 -999 50 10 101480 78
2006-04-20 08:01:19 51°18.507 2°53.219 -999 56 10 101480 78
2006-04-20 08:01:24 51°18.512 2°53.245 -999 57 9.9 101470 78
2006-04-20 08:01:29 51°18.518 2°53.271 -999 48 9.9 101470 78
2006-04-20 08:01:34 51°18.524 2°53.297 -999 49 9.9 101470 78
2006-04-20 08:01:39 51°18.529 2°53.323 -999 52 9.9 101470 78
2006-04-20 08:01:44 51°18.535 2°53.349 -999 56 9.9 101470 78
2006-04-20 08:01:49 51°18.541 2°53.375 -999 52 9.9 101470 78
2006-04-20 08:01:54 51°18.548 2°53.4 -999 43 9.9 101470 78
2006-04-20 08:01:59 51°18.555 2°53.426 -999 52 9.9 101470 78
2006-04-20 08:02:04 51°18.562 2°53.451 -999 55 9.9 101470 78
2006-04-20 08:02:09 51°18.57 2°53.476 -999 47 9.9 101470 78
2006-04-20 08:02:14 51°18.578 2°53.5 -999 49 9.9 101470 79
2006-04-20 08:02:19 51°18.586 2°53.525 -999 45 9.9 101470 79
2006-04-20 08:02:24 51°18.594 2°53.55 -999 37 9.9 101470 79
2006-04-20 08:02:29 51°18.602 2°53.574 -999 49 9.9 101470 79
2006-04-20 08:02:34 51°18.609 2°53.599 -999 45 9.9 101470 79
2006-04-20 08:02:39 51°18.617 2°53.624 -999 41 9.9 101470 79
2006-04-20 08:02:44 51°18.625 2°53.649 -999 48 9.9 101470 79
2006-04-20 08:02:49 51°18.632 2°53.674 -999 49 9.9 101470 79
2006-04-20 08:02:54 51°18.639 2°53.699 -999 50 9.9 101470 79
2006-04-20 08:02:59 51°18.646 2°53.724 -999 47 9.9 101470 79
2006-04-20 08:03:04 51°18.653 2°53.75 -999 47 9.9 101470 80
2006-04-20 08:03:09 51°18.661 2°53.775 -999 52 9.9 101470 80
2006-04-20 08:03:14 51°18.668 2°53.8 -999 48 9.8 101470 80
2006-04-20 08:03:19 51°18.675 2°53.825 -999 51 9.8 101470 80
2006-04-20 08:03:24 51°18.683 2°53.85 -999 48 9.9 101470 80
2006-04-20 08:03:29 51°18.691 2°53.874 -999 48 9.9 101470 80
2006-04-20 08:03:34 51°18.699 2°53.899 -999 48 9.8 101470 80
2006-04-20 08:03:39 51°18.707 2°53.923 -999 44 9.8 101470 80
2006-04-20 08:03:44 51°18.715 2°53.948 -999 44 9.8 101470 80
2006-04-20 08:03:49 51°18.722 2°53.973 -999 43 9.8 101470 80
2006-04-20 08:03:54 51°18.73 2°53.998 -999 44 9.8 101470 80
2006-04-20 08:03:59 51°18.737 2°54.024 -999 46 9.8 101470 80
2006-04-20 08:04:04 51°18.745 2°54.049 -999 45 9.8 101470 80
2006-04-20 08:04:10 51°18.753 2°54.079 -999 51 9.8 101470 80
2006-04-20 08:04:14 51°18.759 2°54.099 -999 42 9.8 101470 81
2006-04-20 08:04:19 51°18.767 2°54.124 -999 48 9.8 101470 81
2006-04-20 08:04:24 51°18.774 2°54.149 -999 47 9.8 101470 81
2006-04-20 08:04:29 51°18.781 2°54.175 -999 49 9.8 101470 81
2006-04-20 08:04:34 51°18.788 2°54.2 -999 40 9.8 101470 81
2006-04-20 08:04:39 51°18.795 2°54.225 -999 48 9.8 101470 81
2006-04-20 08:04:44 51°18.803 2°54.25 -999 48 9.8 101470 81
2006-04-20 08:04:49 51°18.81 2°54.275 -999 45 9.8 101470 81
2006-04-20 08:04:54 51°18.818 2°54.3 -999 45 9.8 101470 81
2006-04-20 08:04:59 51°18.825 2°54.325 -999 45 9.8 101470 81
2006-04-20 08:05:04 51°18.833 2°54.35 -999 41 9.8 101470 81
2006-04-20 08:05:09 51°18.841 2°54.375 -999 42 9.8 101470 81
2006-04-20 08:05:14 51°18.848 2°54.4 -999 38 9.8 101470 81
2006-04-20 08:05:19 51°18.856 2°54.425 -999 44 9.8 101470 81
2006-04-20 08:05:24 51°18.863 2°54.45 -999 37 9.8 101470 81
2006-04-20 08:05:29 51°18.871 2°54.475 -999 47 9.8 101470 81
2006-04-20 08:05:34 51°18.878 2°54.5 -999 39 9.8 101470 82
2006-04-20 08:05:40 51°18.887 2°54.53 -999 44 9.8 101470 82
2006-04-20 08:05:44 51°18.894 2°54.549 -999 40 9.8 101470 82
2006-04-20 08:05:49 51°18.902 2°54.574 -999 45 9.8 101470 82
2006-04-20 08:05:54 51°18.909 2°54.599 -999 41 9.8 101470 82
2006-04-20 08:05:59 51°18.916 2°54.624 -999 42 9.8 101470 82
2006-04-20 08:06:04 51°18.924 2°54.649 -999 42 9.8 101470 82
2006-04-20 08:06:09 51°18.931 2°54.674 -999 42 9.8 101470 82
2006-04-20 08:06:14 51°18.938 2°54.699 -999 40 9.7 101470 82
2006-04-20 08:06:19 51°18.946 2°54.724 -999 44 9.7 101470 82
2006-04-20 08:06:24 51°18.954 2°54.748 -999 41 9.8 101470 82
2006-04-20 08:06:29 51°18.961 2°54.773 -999 43 9.8 101470 82
2006-04-20 08:06:34 51°18.969 2°54.798 -999 43 9.8 101470 82
2006-04-20 08:06:39 51°18.977 2°54.822 -999 40 9.8 101470 82
2006-04-20 08:06:44 51°18.984 2°54.847 -999 45 9.7 101480 82
2006-04-20 08:06:49 51°18.991 2°54.872 -999 48 9.7 101480 82
2006-04-20 08:06:54 51°18.999 2°54.897 -999 39 9.7 101470 82
2006-04-20 08:06:59 51°19.005 2°54.923 -999 44 9.7 101470 82
2006-04-20 08:07:04 51°19.013 2°54.948 -999 49 9.7 101470 82
2006-04-20 08:07:09 51°19.02 2°54.973 -999 47 9.7 101470 82
2006-04-20 08:07:14 51°19.027 2°54.998 -999 42 9.7 101470 82
2006-04-20 08:07:19 51°19.034 2°55.023 -999 49 9.7 101470 82
2006-04-20 08:07:24 51°19.042 2°55.047 -999 48 9.7 101470 83
2006-04-20 08:07:29 51°19.05 2°55.071 -999 47 9.7 101470 83
2006-04-20 08:07:34 51°19.057 2°55.096 -999 51 9.7 101470 83
2006-04-20 08:07:39 51°19.065 2°55.12 -999 45 9.7 101470 83
2006-04-20 08:07:44 51°19.073 2°55.145 -999 42 9.7 101470 83
2006-04-20 08:07:49 51°19.081 2°55.169 -999 52 9.7 101470 83
2006-04-20 08:07:54 51°19.089 2°55.193 -999 50 9.7 101470 83
2006-04-20 08:07:59 51°19.097 2°55.218 -999 43 9.7 101470 83
2006-04-20 08:08:04 51°19.104 2°55.243 -999 51 9.7 101470 83
2006-04-20 08:08:09 51°19.112 2°55.267 -999 44 9.7 101470 83
2006-04-20 08:08:14 51°19.119 2°55.293 -999 51 9.7 101480 83
2006-04-20 08:08:19 51°19.126 2°55.317 -999 51 9.7 101480 83
2006-04-20 08:08:25 51°19.135 2°55.347 -999 45 9.7 101470 83
2006-04-20 08:08:29 51°19.14 2°55.368 -999 48 9.7 101470 83
2006-04-20 08:08:34 51°19.147 2°55.393 -999 47 9.7 101470 83
2006-04-20 08:08:39 51°19.154 2°55.418 -999 47 9.7 101470 83
2006-04-20 08:08:44 51°19.161 2°55.443 -999 42 9.7 101470 83
2006-04-20 08:08:49 51°19.168 2°55.468 -999 54 9.7 101470 83
2006-04-20 08:08:54 51°19.176 2°55.493 -999 48 9.7 101470 83
2006-04-20 08:08:59 51°19.183 2°55.517 -999 52 9.7 101470 83
2006-04-20 08:09:04 51°19.191 2°55.542 -999 48 9.7 101470 83
2006-04-20 08:09:09 51°19.198 2°55.567 -999 42 9.7 101470 83
2006-04-20 08:09:14 51°19.206 2°55.592 -999 45 9.7 101480 83
2006-04-20 08:09:19 51°19.213 2°55.617 -999 41 9.7 101480 83
2006-04-20 08:09:24 51°19.22 2°55.642 -999 48 9.7 101470 83
2006-04-20 08:09:29 51°19.227 2°55.667 -999 47 9.7 101470 83
2006-04-20 08:09:34 51°19.234 2°55.692 -999 51 9.7 101480 83
2006-04-20 08:09:39 51°19.242 2°55.717 -999 43 9.7 101480 83
2006-04-20 08:09:44 51°19.249 2°55.743 -999 52 9.7 101470 83
2006-04-20 08:09:49 51°19.256 2°55.767 -999 48 9.7 101470 83
2006-04-20 08:09:54 51°19.263 2°55.792 -999 51 9.7 101470 83
2006-04-20 08:09:59 51°19.271 2°55.817 -999 44 9.7 101470 83
2006-04-20 08:10:04 51°19.278 2°55.842 -999 52 9.7 101470 83
2006-04-20 08:10:09 51°19.286 2°55.867 -999 52 9.7 101470 83
2006-04-20 08:10:14 51°19.293 2°55.892 -999 51 9.7 101470 83
2006-04-20 08:10:19 51°19.3 2°55.917 -999 51 9.7 101470 83
2006-04-20 08:10:24 51°19.307 2°55.941 -999 60 9.7 101470 83
2006-04-20 08:10:29 51°19.314 2°55.967 -999 50 9.7 101470 83
2006-04-20 08:10:34 51°19.322 2°55.992 -999 53 9.7 101480 83
2006-04-20 08:10:39 51°19.329 2°56.016 -999 48 9.7 101480 83
2006-04-20 08:10:44 51°19.337 2°56.041 -999 49 9.7 101470 83
2006-04-20 08:10:50 51°19.346 2°56.071 -999 48 9.7 101470 83
2006-04-20 08:10:54 51°19.352 2°56.09 -999 49 9.7 101470 83
2006-04-20 08:10:59 51°19.359 2°56.115 -999 52 9.7 101470 83
2006-04-20 08:11:04 51°19.366 2°56.14 -999 48 9.7 101470 83
2006-04-20 08:11:09 51°19.372 2°56.165 -999 54 9.7 101470 83
2006-04-20 08:11:14 51°19.379 2°56.19 -999 45 9.7 101470 83
2006-04-20 08:11:19 51°19.386 2°56.216 -999 54 9.7 101470 83
2006-04-20 08:11:24 51°19.393 2°56.241 -999 44 9.7 101470 83
2006-04-20 08:11:29 51°19.4 2°56.266 -999 55 9.7 101470 83
2006-04-20 08:11:34 51°19.407 2°56.29 -999 45 9.8 101470 82
2006-04-20 08:11:39 51°19.414 2°56.315 -999 57 9.8 101470 82
2006-04-20 08:11:44 51°19.422 2°56.34 -999 54 9.8 101470 82
2006-04-20 08:11:49 51°19.43 2°56.364 -999 48 9.8 101470 82
2006-04-20 08:11:54 51°19.438 2°56.388 -999 57 9.8 101480 82
2006-04-20 08:11:59 51°19.446 2°56.412 -999 58 9.8 101480 82
2006-04-20 08:12:04 51°19.454 2°56.436 -999 50 9.8 101470 83
2006-04-20 08:12:09 51°19.462 2°56.46 -999 53 9.8 101470 83
2006-04-20 08:12:14 51°19.47 2°56.484 -999 56 9.8 101470 82
2006-04-20 08:12:19 51°19.478 2°56.508 -999 51 9.8 101470 82
2006-04-20 08:12:24 51°19.485 2°56.533 -999 44 9.8 101480 82
2006-04-20 08:12:29 51°19.492 2°56.558 -999 52 9.8 101480 82
2006-04-20 08:12:34 51°19.499 2°56.583 -999 54 9.8 101470 82
2006-04-20 08:12:39 51°19.506 2°56.608 -999 45 9.8 101470 82
2006-04-20 08:12:44 51°19.514 2°56.632 -999 58 9.8 101480 82
2006-04-20 08:12:49 51°19.521 2°56.657 -999 56 9.8 101480 82
2006-04-20 08:12:54 51°19.529 2°56.682 -999 48 9.8 101480 82
2006-04-20 08:12:59 51°19.536 2°56.706 -999 51 9.8 101480 82
2006-04-20 08:13:04 51°19.543 2°56.731 -999 50 9.8 101470 82
2006-04-20 08:13:09 51°19.55 2°56.757 -999 56 9.8 101470 82
2006-04-20 08:13:14 51°19.557 2°56.781 -999 47 9.8 101480 82
2006-04-20 08:13:19 51°19.565 2°56.806 -999 54 9.8 101480 82
2006-04-20 08:13:24 51°19.572 2°56.83 -999 53 9.8 101470 82
2006-04-20 08:13:30 51°19.582 2°56.859 -999 56 9.8 101470 82
2006-04-20 08:13:34 51°19.588 2°56.879 -999 51 9.8 101470 82
2006-04-20 08:13:39 51°19.596 2°56.903 -999 60 9.8 101470 82
2006-04-20 08:13:44 51°19.604 2°56.927 -999 50 9.8 101470 82
2006-04-20 08:13:49 51°19.612 2°56.951 -999 54 9.8 101470 82
2006-04-20 08:13:54 51°19.62 2°56.975 -999 52 9.8 101480 82
2006-04-20 08:13:59 51°19.627 2°57 -999 58 9.8 101480 82
2006-04-20 08:14:04 51°19.634 2°57.024 -999 51 9.8 101470 82
2006-04-20 08:14:09 51°19.641 2°57.049 -999 63 9.8 101470 82
2006-04-20 08:14:14 51°19.648 2°57.073 -999 54 9.8 101470 82
2006-04-20 08:14:19 51°19.656 2°57.098 -999 58 9.8 101470 82
2006-04-20 08:14:24 51°19.663 2°57.123 -999 48 9.9 101470 82
2006-04-20 08:14:29 51°19.67 2°57.147 -999 55 9.9 101470 82
2006-04-20 08:14:34 51°19.677 2°57.172 -999 53 9.9 101470 82
2006-04-20 08:14:39 51°19.684 2°57.197 -999 56 9.9 101470 82
2006-04-20 08:14:44 51°19.691 2°57.221 -999 54 9.9 101480 82
2006-04-20 08:14:49 51°19.699 2°57.246 -999 54 9.9 101480 82
2006-04-20 08:14:54 51°19.707 2°57.27 -999 48 9.9 101470 82
2006-04-20 08:14:59 51°19.714 2°57.294 -999 52 9.9 101470 82
2006-04-20 08:15:04 51°19.722 2°57.318 -999 54 9.9 101470 82
2006-04-20 08:15:09 51°19.73 2°57.342 -999 50 9.9 101470 82
2006-04-20 08:15:14 51°19.737 2°57.366 -999 51 9.9 101480 82
2006-04-20 08:15:19 51°19.745 2°57.39 -999 49 9.9 101480 82
2006-04-20 08:15:24 51°19.753 2°57.414 -999 52 9.9 101470 82
2006-04-20 08:15:29 51°19.761 2°57.438 -999 50 9.9 101470 82
2006-04-20 08:15:34 51°19.768 2°57.462 -999 51 9.9 101480 82
2006-04-20 08:15:39 51°19.776 2°57.487 -999 52 9.9 101480 82
2006-04-20 08:15:44 51°19.783 2°57.511 -999 60 9.9 101480 82
2006-04-20 08:15:49 51°19.79 2°57.535 -999 55 9.9 101480 82
2006-04-20 08:15:54 51°19.797 2°57.56 -999 56 9.9 101480 82
2006-04-20 08:15:59 51°19.805 2°57.585 -999 55 9.9 101480 82
2006-04-20 08:16:04 51°19.812 2°57.609 -999 51 9.9 101470 82
2006-04-20 08:16:10 51°19.82 2°57.639 -999 60 9.9 101470 82
2006-04-20 08:16:14 51°19.825 2°57.659 -999 56 9.9 101470 82
2006-04-20 08:16:19 51°19.832 2°57.684 -999 57 9.9 101470 82
2006-04-20 08:16:24 51°19.839 2°57.709 -999 56 9.9 101480 82
2006-04-20 08:16:29 51°19.846 2°57.733 -999 51 9.9 101480 82
2006-04-20 08:16:34 51°19.853 2°57.758 -999 56 9.9 101480 82
2006-04-20 08:16:39 51°19.86 2°57.782 -999 57 9.9 101480 82
2006-04-20 08:16:44 51°19.867 2°57.807 -999 55 9.9 101480 82
2006-04-20 08:16:49 51°19.875 2°57.831 -999 54 9.9 101480 82
2006-04-20 08:16:54 51°19.882 2°57.855 -999 50 9.9 101480 82
2006-04-20 08:16:59 51°19.889 2°57.88 -999 52 9.9 101480 82
2006-04-20 08:17:04 51°19.896 2°57.904 -999 45 9.9 101480 82
2006-04-20 08:17:09 51°19.903 2°57.929 -999 54 9.9 101480 82
2006-04-20 08:17:14 51°19.911 2°57.953 -999 50 9.9 101480 82
2006-04-20 08:17:19 51°19.917 2°57.977 -999 49 9.9 101480 82
2006-04-20 08:17:24 51°19.925 2°58.001 -999 53 9.9 101480 82
2006-04-20 08:17:29 51°19.933 2°58.025 -999 54 9.9 101480 82
2006-04-20 08:17:34 51°19.941 2°58.049 -999 47 9.9 101480 82
2006-04-20 08:17:39 51°19.948 2°58.073 -999 51 9.9 101480 82
2006-04-20 08:17:44 51°19.956 2°58.098 -999 47 9.9 101470 82
2006-04-20 08:17:49 51°19.963 2°58.122 -999 55 9.9 101470 82
2006-04-20 08:17:54 51°19.97 2°58.146 -999 49 9.9 101480 82
2006-04-20 08:17:59 51°19.977 2°58.171 -999 52 9.9 101480 82
2006-04-20 08:18:04 51°19.985 2°58.195 -999 51 9.9 101480 83
2006-04-20 08:18:09 51°19.992 2°58.22 -999 51 9.9 101480 83
2006-04-20 08:18:14 51°19.999 2°58.244 -999 50 9.9 101470 83
2006-04-20 08:18:19 51°20.006 2°58.269 -999 52 9.9 101470 83
2006-04-20 08:18:24 51°20.013 2°58.293 -999 55 9.9 101480 83
2006-04-20 08:18:29 51°20.02 2°58.318 -999 50 9.9 101480 83
2006-04-20 08:18:34 51°20.027 2°58.343 -999 54 9.9 101480 83
2006-04-20 08:18:39 51°20.034 2°58.368 -999 52 9.9 101480 83
2006-04-20 08:18:44 51°20.041 2°58.392 -999 49 9.9 101480 83
2006-04-20 08:18:49 51°20.048 2°58.417 -999 51 9.9 101480 83
2006-04-20 08:18:54 51°20.055 2°58.441 -999 49 9.9 101480 83
2006-04-20 08:19:00 51°20.064 2°58.47 -999 50 9.9 101480 83
2006-04-20 08:19:04 51°20.07 2°58.49 -999 48 9.9 101480 83
2006-04-20 08:19:09 51°20.078 2°58.514 -999 48 9.9 101480 83
2006-04-20 08:19:14 51°20.086 2°58.539 -999 54 9.9 101480 83
2006-04-20 08:19:19 51°20.094 2°58.563 -999 50 9.9 101480 83
2006-04-20 08:19:24 51°20.101 2°58.587 -999 43 9.9 101480 83
2006-04-20 08:19:29 51°20.109 2°58.611 -999 43 9.9 101480 83
2006-04-20 08:19:34 51°20.117 2°58.635 -999 54 9.9 101480 83
2006-04-20 08:19:39 51°20.124 2°58.66 -999 44 9.9 101480 83
2006-04-20 08:19:44 51°20.132 2°58.684 -999 49 9.9 101480 83
2006-04-20 08:19:49 51°20.139 2°58.709 -999 44 9.9 101480 83
2006-04-20 08:19:54 51°20.146 2°58.733 -999 49 9.9 101480 83
2006-04-20 08:19:59 51°20.153 2°58.758 -999 52 9.9 101480 83
2006-04-20 08:20:04 51°20.16 2°58.782 -999 47 9.9 101480 83
2006-04-20 08:20:09 51°20.167 2°58.807 -999 51 9.9 101480 83
2006-04-20 08:20:14 51°20.175 2°58.831 -999 45 9.9 101480 83
2006-04-20 08:20:19 51°20.181 2°58.856 -999 50 9.9 101480 83
2006-04-20 08:20:24 51°20.189 2°58.88 -999 47 9.9 101480 82
2006-04-20 08:20:29 51°20.197 2°58.904 -999 41 9.9 101480 82
2006-04-20 08:20:34 51°20.205 2°58.928 -999 42 9.9 101480 83
2006-04-20 08:20:39 51°20.213 2°58.952 -999 47 9.9 101480 83
2006-04-20 08:20:44 51°20.22 2°58.976 -999 47 9.9 101480 83
2006-04-20 08:20:49 51°20.228 2°59 -999 44 9.9 101480 83
2006-04-20 08:20:54 51°20.236 2°59.024 -999 41 9.9 101480 83
2006-04-20 08:20:59 51°20.244 2°59.049 -999 36 9.9 101480 83
2006-04-20 08:21:04 51°20.251 2°59.073 -999 47 9.9 101480 82
2006-04-20 08:21:09 51°20.259 2°59.097 -999 47 9.9 101480 82
2006-04-20 08:21:14 51°20.266 2°59.122 -999 39 9.9 101480 82
2006-04-20 08:21:19 51°20.274 2°59.146 -999 51 9.9 101480 82
2006-04-20 08:21:24 51°20.281 2°59.17 -999 44 9.9 101480 82
2006-04-20 08:21:29 51°20.289 2°59.195 -999 42 9.9 101480 82
2006-04-20 08:21:34 51°20.296 2°59.219 -999 44 9.9 101480 82
2006-04-20 08:21:39 51°20.304 2°59.243 -999 47 9.9 101480 82
2006-04-20 08:21:44 51°20.312 2°59.268 -999 41 9.9 101480 82
2006-04-20 08:21:49 51°20.319 2°59.292 -999 31 9.9 101480 82
2006-04-20 08:21:54 51°20.326 2°59.316 -999 46 9.9 101480 82
2006-04-20 08:21:59 51°20.334 2°59.34 -999 40 9.9 101480 82
2006-04-20 08:22:04 51°20.342 2°59.365 -999 46 9.9 101490 82
2006-04-20 08:22:09 51°20.349 2°59.39 -999 37 9.9 101490 82
2006-04-20 08:22:14 51°20.356 2°59.414 -999 51 9.9 101480 82
2006-04-20 08:22:19 51°20.364 2°59.439 -999 37 9.9 101480 82
2006-04-20 08:22:24 51°20.372 2°59.463 -999 48 9.9 101480 82
2006-04-20 08:22:29 51°20.379 2°59.488 -999 38 9.9 101480 82
2006-04-20 08:22:34 51°20.387 2°59.513 -999 44 9.9 101480 82
2006-04-20 08:22:39 51°20.394 2°59.538 -999 42 9.9 101480 82
2006-04-20 08:22:44 51°20.401 2°59.562 -999 44 9.9 101490 82
2006-04-20 08:22:49 51°20.408 2°59.587 -999 47 9.9 101490 82
2006-04-20 08:22:54 51°20.416 2°59.612 -999 45 10 101480 82
2006-04-20 08:22:59 51°20.424 2°59.636 -999 47 10 101480 82
2006-04-20 08:23:04 51°20.432 2°59.661 -999 45 9.9 101490 82
2006-04-20 08:23:09 51°20.44 2°59.685 -999 44 9.9 101490 82
2006-04-20 08:23:14 51°20.448 2°59.709 -999 39 10 101480 82
2006-04-20 08:23:20 51°20.458 2°59.739 -999 39 10 101480 82
2006-04-20 08:23:24 51°20.464 2°59.758 -999 44 10 101480 82
2006-04-20 08:23:29 51°20.472 2°59.783 -999 36 10 101480 82
2006-04-20 08:23:34 51°20.479 2°59.807 -999 41 10 101480 82
2006-04-20 08:23:39 51°20.487 2°59.832 -999 51 10 101480 82
2006-04-20 08:23:44 51°20.494 2°59.857 -999 33 10 101480 82
2006-04-20 08:23:49 51°20.502 2°59.882 -999 43 10 101480 82
2006-04-20 08:23:54 51°20.51 2°59.906 -999 44 10 101490 82
2006-04-20 08:23:59 51°20.517 2°59.931 -999 39 10 101490 82
2006-04-20 08:24:04 51°20.525 2°59.955 -999 44 10 101490 82
2006-04-20 08:24:09 51°20.533 2°59.979 -999 35 10 101490 82
2006-04-20 08:24:14 51°20.541 3°0.004 -999 40 10 101490 82
2006-04-20 08:24:19 51°20.55 3°0.028 -999 40 10 101490 82
2006-04-20 08:24:24 51°20.558 3°0.052 -999 40 10 101480 82
2006-04-20 08:24:29 51°20.567 3°0.076 -999 38 10 101480 82
2006-04-20 08:24:34 51°20.575 3°0.1 -999 34 10 101480 82
2006-04-20 08:24:39 51°20.583 3°0.125 -999 31 10 101480 82
2006-04-20 08:24:44 51°20.591 3°0.149 -999 39 10 101490 82
2006-04-20 08:24:48 51°20.598 3°0.169 -999 37 10 101490 82
2006-04-20 08:24:54 51°20.607 3°0.198 -999 38 10 101480 82
2006-04-20 08:24:59 51°20.615 3°0.222 -999 35 10 101480 82
2006-04-20 08:25:04 51°20.623 3°0.246 -999 38 10 101490 82
2006-04-20 08:25:09 51°20.631 3°0.27 -999 34 10 101490 82
2006-04-20 08:25:14 51°20.639 3°0.294 -999 36 10 101490 82
2006-04-20 08:25:19 51°20.647 3°0.319 -999 40 10 101490 82
2006-04-20 08:25:24 51°20.655 3°0.343 -999 33 10 101490 82
2006-04-20 08:25:29 51°20.663 3°0.368 -999 36 10 101490 82
2006-04-20 08:25:34 51°20.67 3°0.392 -999 36 10.1 101490 82
2006-04-20 08:25:38 51°20.677 3°0.411 -999 29 10.1 101490 82
2006-04-20 08:25:44 51°20.686 3°0.441 -999 35 10.1 101490 82
2006-04-20 08:25:49 51°20.694 3°0.465 -999 33 10.1 101490 82
2006-04-20 08:25:54 51°20.702 3°0.489 -999 36 10.1 101490 81
2006-04-20 08:25:59 51°20.709 3°0.514 -999 39 10.1 101490 81
2006-04-20 08:26:04 51°20.717 3°0.539 -999 39 10.1 101490 81
2006-04-20 08:26:09 51°20.724 3°0.563 -999 41 10.1 101490 81
2006-04-20 08:26:14 51°20.732 3°0.588 -999 34 10.1 101490 82
2006-04-20 08:26:19 51°20.739 3°0.612 -999 35 10.1 101490 82
2006-04-20 08:26:24 51°20.747 3°0.637 -999 38 10.1 101490 82
2006-04-20 08:26:29 51°20.755 3°0.661 -999 37 10.1 101490 82
2006-04-20 08:26:34 51°20.763 3°0.685 -999 32 10.1 101490 81
2006-04-20 08:26:39 51°20.771 3°0.709 -999 34 10.1 101490 81
2006-04-20 08:26:44 51°20.78 3°0.733 -999 40 10.1 101490 82
2006-04-20 08:26:49 51°20.788 3°0.757 -999 42 10.1 101490 82
2006-04-20 08:26:54 51°20.796 3°0.781 -999 30 10.1 101490 82
2006-04-20 08:26:59 51°20.805 3°0.805 -999 36 10.1 101490 82
2006-04-20 08:27:04 51°20.814 3°0.828 -999 36 10.1 101490 82
2006-04-20 08:27:09 51°20.823 3°0.852 -999 39 10.1 101490 82
2006-04-20 08:27:14 51°20.832 3°0.874 -999 23 10.1 101490 82
2006-04-20 08:27:19 51°20.841 3°0.897 -999 30 10.1 101490 82
2006-04-20 08:27:24 51°20.851 3°0.92 -999 26 10.1 101490 82
2006-04-20 08:27:29 51°20.86 3°0.943 -999 26 10.1 101490 82
2006-04-20 08:27:34 51°20.87 3°0.966 -999 29 10.1 101490 82
2006-04-20 08:27:39 51°20.879 3°0.99 -999 29 10.1 101490 82
2006-04-20 08:27:44 51°20.888 3°1.014 -999 24 10.2 101490 82
2006-04-20 08:27:49 51°20.897 3°1.037 -999 27 10.2 101490 82
2006-04-20 08:27:54 51°20.906 3°1.061 -999 27 10.2 101490 82
2006-04-20 08:27:59 51°20.915 3°1.084 -999 33 10.2 101490 82
2006-04-20 08:28:04 51°20.924 3°1.107 -999 26 10.2 101490 82
2006-04-20 08:28:09 51°20.932 3°1.131 -999 29 10.2 101490 82
2006-04-20 08:28:14 51°20.941 3°1.155 -999 30 10.2 101490 82
2006-04-20 08:28:19 51°20.949 3°1.178 -999 30 10.2 101490 82
2006-04-20 08:28:24 51°20.958 3°1.202 -999 32 10.2 101490 82
2006-04-20 08:28:29 51°20.966 3°1.226 -999 38 10.2 101490 82
2006-04-20 08:28:34 51°20.974 3°1.25 -999 34 10.2 101490 82
2006-04-20 08:28:39 51°20.981 3°1.274 -999 32 10.2 101490 82
2006-04-20 08:28:44 51°20.989 3°1.298 -999 29 10.2 101490 82
2006-04-20 08:28:49 51°20.997 3°1.322 -999 31 10.2 101490 82
2006-04-20 08:28:54 51°21.004 3°1.345 -999 35 10.2 101490 82
2006-04-20 08:28:59 51°21.013 3°1.369 -999 32 10.2 101490 82
2006-04-20 08:29:04 51°21.022 3°1.391 -999 27 10.2 101490 82
2006-04-20 08:29:09 51°21.031 3°1.414 -999 29 10.2 101490 82
2006-04-20 08:29:14 51°21.039 3°1.436 -999 28 10.2 101490 82
2006-04-20 08:29:19 51°21.048 3°1.459 -999 35 10.2 101490 82
2006-04-20 08:29:24 51°21.057 3°1.482 -999 33 10.2 101490 82
2006-04-20 08:29:29 51°21.066 3°1.504 -999 34 10.2 101490 82
2006-04-20 08:29:34 51°21.075 3°1.527 -999 23 10.2 101490 82
2006-04-20 08:29:39 51°21.084 3°1.549 -999 21 10.2 101490 82
2006-04-20 08:29:44 51°21.094 3°1.571 -999 25 10.2 101490 82
2006-04-20 08:29:49 51°21.104 3°1.593 -999 19 10.2 101490 82
2006-04-20 08:29:54 51°21.114 3°1.616 -999 35 10.2 101490 82
2006-04-20 08:30:00 51°21.126 3°1.642 -999 25 10.2 101490 82
2006-04-20 08:30:04 51°21.133 3°1.66 -999 26 10.2 101490 82
2006-04-20 08:30:09 51°21.142 3°1.683 -999 22 10.2 101490 82
2006-04-20 08:30:14 51°21.151 3°1.705 -999 31 10.3 101490 82
2006-04-20 08:30:19 51°21.162 3°1.727 -999 23 10.3 101490 82
2006-04-20 08:30:24 51°21.172 3°1.749 -999 23 10.3 101490 82
2006-04-20 08:30:29 51°21.183 3°1.77 -999 24 10.3 101490 82
2006-04-20 08:30:34 51°21.193 3°1.791 -999 20 10.3 101490 82
2006-04-20 08:30:39 51°21.202 3°1.813 -999 27 10.3 101490 82
2006-04-20 08:30:44 51°21.213 3°1.835 -999 17 10.3 101490 82
2006-04-20 08:30:49 51°21.222 3°1.857 -999 30 10.3 101490 82
2006-04-20 08:30:54 51°21.233 3°1.879 -999 21 10.3 101500 81
2006-04-20 08:30:59 51°21.242 3°1.901 -999 24 10.3 101500 81
2006-04-20 08:31:04 51°21.252 3°1.923 -999 23 10.3 101490 81
2006-04-20 08:31:10 51°21.263 3°1.95 -999 21 10.3 101490 81
2006-04-20 08:31:14 51°21.271 3°1.967 -999 29 10.3 101490 81
2006-04-20 08:31:19 51°21.281 3°1.989 -999 28 10.3 101490 81
2006-04-20 08:31:24 51°21.291 3°2.012 -999 31 10.4 101490 81
2006-04-20 08:31:30 51°21.303 3°2.038 -999 24 10.4 101490 81
2006-04-20 08:31:34 51°21.311 3°2.055 -999 28 10.3 101490 81
2006-04-20 08:31:39 51°21.321 3°2.077 -999 30 10.3 101490 81
2006-04-20 08:31:44 51°21.331 3°2.099 -999 22 10.3 101490 81
2006-04-20 08:31:49 51°21.341 3°2.121 -999 23 10.3 101490 81
2006-04-20 08:31:54 51°21.351 3°2.143 -999 34 10.3 101490 81
2006-04-20 08:31:59 51°21.361 3°2.165 -999 20 10.3 101490 81
2006-04-20 08:32:04 51°21.37 3°2.187 -999 32 10.4 101490 81
2006-04-20 08:32:09 51°21.38 3°2.21 -999 27 10.4 101490 81
2006-04-20 08:32:14 51°21.389 3°2.232 -999 29 10.4 101490 81
2006-04-20 08:32:19 51°21.399 3°2.254 -999 28 10.4 101490 81
2006-04-20 08:32:24 51°21.408 3°2.277 -999 27 10.4 101490 81
2006-04-20 08:32:29 51°21.418 3°2.299 -999 33 10.4 101490 81
2006-04-20 08:32:34 51°21.428 3°2.322 -999 29 10.4 101490 81
2006-04-20 08:32:39 51°21.437 3°2.345 -999 23 10.4 101490 81
2006-04-20 08:32:44 51°21.446 3°2.368 -999 28 10.4 101490 81
2006-04-20 08:32:49 51°21.456 3°2.39 -999 26 10.4 101490 81
2006-04-20 08:32:54 51°21.465 3°2.412 -999 29 10.4 101490 80
2006-04-20 08:32:59 51°21.475 3°2.435 -999 31 10.4 101490 80
2006-04-20 08:33:04 51°21.484 3°2.457 -999 27 10.4 101490 80
2006-04-20 08:33:09 51°21.494 3°2.48 -999 22 10.4 101490 80
2006-04-20 08:33:14 51°21.503 3°2.502 -999 31 10.4 101490 80
2006-04-20 08:33:19 51°21.512 3°2.525 -999 32 10.4 101490 80
2006-04-20 08:33:24 51°21.522 3°2.547 -999 28 10.4 101490 80
2006-04-20 08:33:29 51°21.531 3°2.57 -999 29 10.4 101490 80
2006-04-20 08:33:34 51°21.54 3°2.593 -999 31 10.4 101490 80
2006-04-20 08:33:39 51°21.549 3°2.616 -999 37 10.4 101490 80
2006-04-20 08:33:44 51°21.557 3°2.64 -999 30 10.4 101490 80
2006-04-20 08:33:49 51°21.564 3°2.664 -999 39 10.4 101490 80
2006-04-20 08:33:54 51°21.57 3°2.689 -999 40 10.4 101490 80
2006-04-20 08:33:59 51°21.575 3°2.714 -999 37 10.4 101490 80
2006-04-20 08:34:04 51°21.58 3°2.74 -999 44 10.4 101490 80
2006-04-20 08:34:10 51°21.585 3°2.771 -999 42 10.4 101490 80
2006-04-20 08:34:14 51°21.587 3°2.792 -999 41 10.4 101490 80
2006-04-20 08:34:19 51°21.591 3°2.818 -999 43 10.4 101490 80
2006-04-20 08:34:24 51°21.594 3°2.844 -999 41 10.4 101480 80
2006-04-20 08:34:29 51°21.597 3°2.87 -999 43 10.4 101480 80
2006-04-20 08:34:34 51°21.599 3°2.896 -999 40 10.3 101490 80
2006-04-20 08:34:39 51°21.601 3°2.923 -999 44 10.3 101490 80
2006-04-20 08:34:44 51°21.605 3°2.949 -999 40 10.4 101490 80
2006-04-20 08:34:49 51°21.608 3°2.975 -999 38 10.4 101490 80
2006-04-20 08:34:54 51°21.612 3°3 -999 41 10.3 101490 80
2006-04-20 08:34:59 51°21.618 3°3.025 -999 41 10.3 101490 80
2006-04-20 08:35:04 51°21.624 3°3.05 -999 33 10.3 101490 81
2006-04-20 08:35:09 51°21.631 3°3.074 -999 35 10.3 101490 81
2006-04-20 08:35:14 51°21.638 3°3.098 -999 36 10.3 101480 81
2006-04-20 08:35:19 51°21.645 3°3.122 -999 31 10.3 101480 81
2006-04-20 08:35:24 51°21.652 3°3.146 -999 38 10.3 101490 81
2006-04-20 08:35:29 51°21.658 3°3.171 -999 37 10.3 101490 81
2006-04-20 08:35:34 51°21.663 3°3.196 -999 35 10.3 101490 81
2006-04-20 08:35:39 51°21.669 3°3.221 -999 31 10.3 101490 81
2006-04-20 08:35:44 51°21.674 3°3.246 -999 37 10.3 101490 81
2006-04-20 08:35:49 51°21.68 3°3.271 -999 35 10.3 101490 81
2006-04-20 08:35:54 51°21.685 3°3.297 -999 40 10.3 101490 81
2006-04-20 08:35:59 51°21.69 3°3.322 -999 37 10.3 101490 81
2006-04-20 08:36:04 51°21.696 3°3.347 -999 39 10.3 101490 81
2006-04-20 08:36:09 51°21.702 3°3.372 -999 35 10.3 101490 81
2006-04-20 08:36:14 51°21.708 3°3.397 -999 38 10.3 101490 81
2006-04-20 08:36:19 51°21.714 3°3.422 -999 37 10.3 101490 81
2006-04-20 08:36:25 51°21.721 3°3.452 -999 34 10.3 101490 81
2006-04-20 08:36:29 51°21.726 3°3.472 -999 34 10.3 101490 81
2006-04-20 08:36:34 51°21.731 3°3.497 -999 36 10.3 101490 82
2006-04-20 08:36:39 51°21.737 3°3.523 -999 35 10.3 101490 82
2006-04-20 08:36:44 51°21.742 3°3.548 -999 35 10.3 101490 82
2006-04-20 08:36:49 51°21.747 3°3.573 -999 38 10.3 101490 82
2006-04-20 08:36:54 51°21.752 3°3.599 -999 35 10.3 101480 82
2006-04-20 08:36:59 51°21.757 3°3.624 -999 35 10.3 101480 82
2006-04-20 08:37:04 51°21.761 3°3.65 -999 35 10.3 101490 82
2006-04-20 08:37:09 51°21.766 3°3.676 -999 32 10.3 101490 82
2006-04-20 08:37:14 51°21.771 3°3.702 -999 34 10.3 101490 82
2006-04-20 08:37:19 51°21.775 3°3.727 -999 35 10.3 101490 82
2006-04-20 08:37:24 51°21.781 3°3.753 -999 36 10.3 101490 82
2006-04-20 08:37:29 51°21.786 3°3.778 -999 40 10.3 101490 82
2006-04-20 08:37:34 51°21.791 3°3.804 -999 36 10.3 101490 82
2006-04-20 08:37:39 51°21.796 3°3.829 -999 38 10.3 101490 82
2006-04-20 08:37:44 51°21.801 3°3.854 -999 40 10.3 101490 82
2006-04-20 08:37:49 51°21.806 3°3.88 -999 40 10.3 101490 82
2006-04-20 08:37:54 51°21.811 3°3.906 -999 40 10.3 101490 82
2006-04-20 08:37:59 51°21.816 3°3.931 -999 38 10.3 101490 82
2006-04-20 08:38:04 51°21.821 3°3.957 -999 40 10.3 101490 82
2006-04-20 08:38:10 51°21.827 3°3.988 -999 36 10.3 101490 82
2006-04-20 08:38:14 51°21.831 3°4.008 -999 39 10.2 101490 82
2006-04-20 08:38:19 51°21.836 3°4.034 -999 38 10.2 101490 82
2006-04-20 08:38:24 51°21.841 3°4.059 -999 39 10.2 101490 82
2006-04-20 08:38:29 51°21.846 3°4.085 -999 37 10.2 101490 82
2006-04-20 08:38:34 51°21.852 3°4.11 -999 38 10.2 101490 82
2006-04-20 08:38:39 51°21.857 3°4.136 -999 39 10.2 101490 82
2006-04-20 08:38:44 51°21.863 3°4.161 -999 39 10.3 101490 82
2006-04-20 08:38:50 51°21.868 3°4.192 -999 37 10.3 101490 82
2006-04-20 08:38:54 51°21.872 3°4.212 -999 39 10.2 101490 82
2006-04-20 08:38:59 51°21.876 3°4.238 -999 37 10.2 101490 82
2006-04-20 08:39:04 51°21.881 3°4.264 -999 36 10.2 101490 82
2006-04-20 08:39:10 51°21.887 3°4.295 -999 38 10.2 101490 82
2006-04-20 08:39:14 51°21.89 3°4.315 -999 43 10.2 101490 82
2006-04-20 08:39:19 51°21.895 3°4.341 -999 40 10.2 101490 82
2006-04-20 08:39:24 51°21.9 3°4.367 -999 42 10.2 101490 83
2006-04-20 08:39:29 51°21.904 3°4.392 -999 42 10.2 101490 83
2006-04-20 08:39:34 51°21.909 3°4.418 -999 43 10.2 101480 83
2006-04-20 08:39:39 51°21.914 3°4.444 -999 46 10.2 101480 83
2006-04-20 08:39:44 51°21.919 3°4.469 -999 42 10.2 101490 83
2006-04-20 08:39:49 51°21.923 3°4.495 -999 42 10.2 101490 83
2006-04-20 08:39:54 51°21.928 3°4.521 -999 48 10.2 101490 83
2006-04-20 08:39:59 51°21.933 3°4.546 -999 43 10.2 101490 83
2006-04-20 08:40:04 51°21.938 3°4.572 -999 43 10.2 101490 83
2006-04-20 08:40:09 51°21.942 3°4.598 -999 43 10.2 101490 83
2006-04-20 08:40:14 51°21.946 3°4.624 -999 42 10.2 101490 83
2006-04-20 08:40:20 51°21.951 3°4.655 -999 41 10.2 101490 83
2006-04-20 08:40:24 51°21.954 3°4.676 -999 42 10.2 101490 82
2006-04-20 08:40:29 51°21.958 3°4.702 -999 41 10.2 101490 82
2006-04-20 08:40:34 51°21.963 3°4.728 -999 44 10.2 101490 82
2006-04-20 08:40:39 51°21.968 3°4.753 -999 41 10.2 101490 82
2006-04-20 08:40:44 51°21.972 3°4.779 -999 41 10.2 101490 82
2006-04-20 08:40:49 51°21.977 3°4.804 -999 41 10.2 101490 82
2006-04-20 08:40:54 51°21.981 3°4.83 -999 42 10.2 101480 82
2006-04-20 08:40:59 51°21.985 3°4.856 -999 40 10.2 101480 82
2006-04-20 08:41:04 51°21.989 3°4.882 -999 39 10.2 101490 82
2006-04-20 08:41:09 51°21.993 3°4.908 -999 42 10.2 101490 82
2006-04-20 08:41:14 51°21.996 3°4.934 -999 44 10.2 101490 82
2006-04-20 08:41:19 51°22 3°4.96 -999 46 10.2 101490 82
2006-04-20 08:41:24 51°22.003 3°4.986 -999 42 10.2 101490 82
2006-04-20 08:41:29 51°22.007 3°5.012 -999 46 10.2 101490 82
2006-04-20 08:41:34 51°22.011 3°5.038 -999 42 10.2 101490 82
2006-04-20 08:41:39 51°22.015 3°5.064 -999 44 10.2 101490 82
2006-04-20 08:41:44 51°22.02 3°5.089 -999 46 10.2 101490 82
2006-04-20 08:41:49 51°22.025 3°5.115 -999 49 10.2 101490 82
2006-04-20 08:41:54 51°22.03 3°5.141 -999 44 10.2 101490 82
2006-04-20 08:41:59 51°22.034 3°5.166 -999 44 10.2 101490 82
2006-04-20 08:42:04 51°22.039 3°5.192 -999 46 10.2 101490 82
2006-04-20 08:42:09 51°22.043 3°5.218 -999 42 10.2 101490 82
2006-04-20 08:42:14 51°22.048 3°5.243 -999 43 10.2 101490 82
2006-04-20 08:42:19 51°22.052 3°5.269 -999 45 10.2 101490 82
2006-04-20 08:42:24 51°22.056 3°5.295 -999 47 10.2 101490 82
2006-04-20 08:42:29 51°22.059 3°5.321 -999 49 10.2 101490 82
2006-04-20 08:42:34 51°22.063 3°5.346 -999 41 10.2 101490 82
2006-04-20 08:42:40 51°22.068 3°5.377 -999 48 10.2 101490 82
2006-04-20 08:42:44 51°22.071 3°5.398 -999 45 10.2 101490 82
2006-04-20 08:42:49 51°22.075 3°5.423 -999 45 10.2 101490 82
2006-04-20 08:42:54 51°22.08 3°5.449 -999 46 10.2 101490 82
2006-04-20 08:42:59 51°22.084 3°5.475 -999 44 10.2 101490 82
2006-04-20 08:43:04 51°22.088 3°5.5 -999 48 10.2 101490 82
2006-04-20 08:43:09 51°22.093 3°5.526 -999 43 10.2 101490 82
2006-04-20 08:43:14 51°22.098 3°5.551 -999 42 10.2 101480 82
2006-04-20 08:43:19 51°22.103 3°5.577 -999 40 10.2 101480 82
2006-04-20 08:43:24 51°22.107 3°5.602 -999 45 10.3 101490 82
2006-04-20 08:43:30 51°22.113 3°5.633 -999 44 10.3 101490 82
2006-04-20 08:43:34 51°22.117 3°5.654 -999 47 10.3 101490 82
2006-04-20 08:43:39 51°22.121 3°5.679 -999 48 10.3 101490 82
2006-04-20 08:43:44 51°22.125 3°5.705 -999 38 10.2 101490 82
2006-04-20 08:43:50 51°22.13 3°5.736 -999 41 10.2 101490 82
2006-04-20 08:43:54 51°22.134 3°5.757 -999 47 10.3 101490 82
2006-04-20 08:44:00 51°22.138 3°5.787 -999 43 10.3 101490 82
2006-04-20 08:44:04 51°22.141 3°5.808 -999 42 10.3 101490 81
2006-04-20 08:44:09 51°22.145 3°5.834 -999 45 10.3 101490 81
2006-04-20 08:44:14 51°22.148 3°5.86 -999 41 10.3 101480 81
2006-04-20 08:44:19 51°22.152 3°5.885 -999 43 10.3 101480 81
2006-04-20 08:44:24 51°22.155 3°5.911 -999 43 10.3 101490 81
2006-04-20 08:44:29 51°22.159 3°5.937 -999 47 10.3 101490 81
2006-04-20 08:44:34 51°22.162 3°5.963 -999 41 10.3 101490 82
2006-04-20 08:44:39 51°22.166 3°5.988 -999 47 10.3 101490 82
2006-04-20 08:44:44 51°22.171 3°6.013 -999 47 10.3 101490 82
2006-04-20 08:44:49 51°22.175 3°6.039 -999 44 10.3 101490 82
2006-04-20 08:44:54 51°22.179 3°6.064 -999 45 10.3 101490 82
2006-04-20 08:44:59 51°22.183 3°6.09 -999 44 10.3 101490 82
2006-04-20 08:45:04 51°22.187 3°6.115 -999 48 10.3 101480 82
2006-04-20 08:45:09 51°22.191 3°6.141 -999 47 10.3 101480 82
2006-04-20 08:45:14 51°22.194 3°6.166 -999 49 10.3 101490 82
2006-04-20 08:45:19 51°22.197 3°6.192 -999 43 10.3 101490 82
2006-04-20 08:45:24 51°22.201 3°6.218 -999 49 10.3 101490 81
2006-04-20 08:45:29 51°22.204 3°6.243 -999 42 10.3 101490 81
2006-04-20 08:45:34 51°22.207 3°6.269 -999 48 10.3 101480 81
2006-04-20 08:45:39 51°22.211 3°6.295 -999 45 10.3 101480 81
2006-04-20 08:45:44 51°22.214 3°6.321 -999 48 10.3 101490 81
2006-04-20 08:45:49 51°22.217 3°6.346 -999 46 10.3 101490 81
2006-04-20 08:45:54 51°22.221 3°6.372 -999 47 10.3 101490 81
2006-04-20 08:45:59 51°22.224 3°6.398 -999 44 10.3 101490 81
2006-04-20 08:46:04 51°22.227 3°6.423 -999 47 10.3 101490 81
2006-04-20 08:46:09 51°22.23 3°6.449 -999 47 10.3 101490 81
2006-04-20 08:46:14 51°22.234 3°6.474 -999 41 10.3 101490 81
2006-04-20 08:46:19 51°22.237 3°6.5 -999 48 10.3 101490 81
2006-04-20 08:46:24 51°22.24 3°6.525 -999 51 10.3 101490 81
2006-04-20 08:46:29 51°22.243 3°6.551 -999 48 10.3 101490 81
2006-04-20 08:46:34 51°22.247 3°6.576 -999 47 10.3 101490 81
2006-04-20 08:46:39 51°22.25 3°6.602 -999 44 10.3 101490 81
2006-04-20 08:46:44 51°22.253 3°6.627 -999 50 10.3 101490 81
2006-04-20 08:46:49 51°22.257 3°6.653 -999 46 10.3 101490 81
2006-04-20 08:46:54 51°22.26 3°6.678 -999 44 10.4 101490 81
2006-04-20 08:46:59 51°22.264 3°6.703 -999 49 10.4 101490 81
2006-04-20 08:47:04 51°22.266 3°6.729 -999 41 10.4 101490 81
2006-04-20 08:47:10 51°22.27 3°6.759 -999 42 10.4 101490 81
2006-04-20 08:47:14 51°22.272 3°6.78 -999 44 10.4 101490 81
2006-04-20 08:47:19 51°22.276 3°6.805 -999 35 10.4 101490 81
2006-04-20 08:47:24 51°22.279 3°6.83 -999 42 10.4 101490 81
2006-04-20 08:47:29 51°22.282 3°6.856 -999 43 10.4 101490 81
2006-04-20 08:47:34 51°22.285 3°6.881 -999 44 10.4 101490 81
2006-04-20 08:47:39 51°22.289 3°6.907 -999 44 10.4 101490 81
2006-04-20 08:47:44 51°22.292 3°6.932 -999 40 10.4 101490 81
2006-04-20 08:47:49 51°22.295 3°6.958 -999 42 10.4 101490 81
2006-04-20 08:47:54 51°22.299 3°6.983 -999 40 10.4 101490 81
2006-04-20 08:47:59 51°22.302 3°7.009 -999 43 10.4 101490 81
2006-04-20 08:48:04 51°22.306 3°7.034 -999 41 10.4 101490 81
2006-04-20 08:48:09 51°22.309 3°7.06 -999 43 10.4 101490 81
2006-04-20 08:48:14 51°22.313 3°7.085 -999 42 10.4 101490 81
2006-04-20 08:48:19 51°22.317 3°7.111 -999 43 10.4 101490 81
2006-04-20 08:48:24 51°22.32 3°7.136 -999 44 10.4 101490 81
2006-04-20 08:48:29 51°22.324 3°7.162 -999 40 10.4 101490 81
2006-04-20 08:48:34 51°22.327 3°7.187 -999 41 10.3 101490 81
2006-04-20 08:48:39 51°22.331 3°7.212 -999 39 10.3 101490 81
2006-04-20 08:48:44 51°22.335 3°7.238 -999 36 10.3 101490 81
2006-04-20 08:48:49 51°22.338 3°7.263 -999 38 10.3 101490 81
2006-04-20 08:48:54 51°22.342 3°7.289 -999 36 10.4 101490 81
2006-04-20 08:48:59 51°22.345 3°7.315 -999 38 10.4 101490 81
2006-04-20 08:49:04 51°22.348 3°7.34 -999 34 10.4 101500 82
2006-04-20 08:49:09 51°22.351 3°7.366 -999 38 10.4 101500 82